Time;durP1;ratioP1;P1;durP2;ratioP2;P2;SDS_P1;SDS_P2;PMS_P1;PMS_P2;Temp;Humidity;BMP_temperature;BMP_pressure;BME280_temperature;BME280_humidity;BME280_pressure;Samples;Min_cycle;Max_cycle;Signal;HPM_P1;HPM_P2
2022/09/25 00:01:29;;;;;;;;;9.67;8.00;;;;;16.25;73.97;100990.59;5080506;27;45389;-77
2022/09/25 00:03:55;;;;;;;;;9.67;9.67;;;;;16.20;74.29;100986.88;5080164;27;45588;-76
2022/09/25 00:06:22;;;;;;;;;7.00;6.67;;;;;16.27;74.84;100999.28;5078999;28;45801;-76
2022/09/25 00:08:48;;;;;;;;;10.00;10.00;;;;;16.24;74.13;101007.72;5080146;27;45308;-76
2022/09/25 00:11:16;;;;;;;;;9.33;8.33;;;;;16.20;74.37;100995.78;5079740;28;45351;-76
2022/09/25 00:13:43;;;;;;;;;7.50;7.00;;;;;16.24;74.50;101004.22;5079892;27;45443;-76
2022/09/25 00:16:11;;;;;;;;;9.00;8.00;;;;;16.22;74.22;101003.59;5083812;27;45198;-76
2022/09/25 00:21:21;;;;;;;;;9.00;9.00;;;;;16.27;74.26;101006.47;5079526;28;45334;-76
2022/09/25 00:23:47;;;;;;;;;8.33;8.33;;;;;16.23;74.50;100999.88;5079486;27;45361;-76
2022/09/25 00:26:15;;;;;;;;;8.67;8.00;;;;;16.27;74.52;101014.53;5089176;27;45714;-76
2022/09/25 00:28:41;;;;;;;;;8.67;8.67;;;;;16.23;74.57;101010.63;5078702;28;45387;-76
2022/09/25 00:31:08;;;;;;;;;10.67;10.67;;;;;16.22;74.22;101007.09;5079879;27;45165;-77
2022/09/25 00:33:35;;;;;;;;;9.67;8.33;;;;;16.22;74.62;101014.34;5079562;27;46171;-76
2022/09/25 00:36:05;;;;;;;;;10.00;10.00;;;;;16.19;74.53;101001.34;5079783;27;45216;-77
2022/09/25 00:38:33;;;;;;;;;9.33;8.00;;;;;16.14;74.63;100992.03;5079757;27;45208;-76
2022/09/25 00:40:59;;;;;;;;;7.67;7.67;;;;;16.22;74.31;101004.41;5079293;28;45354;-77
2022/09/25 00:43:49;;;;;;;;;10.00;9.00;;;;;16.20;74.43;101005.66;5079586;28;45845;-76
2022/09/25 00:46:26;;;;;;;;;7.67;7.67;;;;;16.22;74.07;101015.13;5065958;28;45330;-77
2022/09/25 00:48:59;;;;;;;;;9.67;8.00;;;;;16.21;74.55;101013.50;5078074;28;45628;-78
2022/09/25 00:51:33;;;;;;;;;12.00;12.00;;;;;16.09;74.57;100999.03;5077873;28;47360;-77
2022/09/25 00:54:02;;;;;;;;;10.00;9.67;;;;;16.08;74.37;100994.72;5078902;27;46172;-76
2022/09/25 00:56:30;;;;;;;;;8.67;8.67;;;;;16.10;74.60;101001.53;5079026;28;45221;-76
2022/09/25 00:58:56;;;;;;;;;14.33;11.00;;;;;16.03;74.35;101001.53;5079459;27;45345;-76
2022/09/25 01:01:22;;;;;;;;;7.67;7.67;;;;;16.00;74.35;100995.75;5078963;27;45291;-76
2022/09/25 01:03:47;;;;;;;;;6.33;6.33;;;;;16.03;74.81;101001.53;5079051;27;46053;-76
2022/09/25 01:06:14;;;;;;;;;8.00;8.00;;;;;16.08;74.36;101000.09;5077947;28;45454;-76
2022/09/25 01:08:40;;;;;;;;;8.67;8.67;;;;;16.02;74.53;100999.84;5079467;27;45378;-77
2022/09/25 01:11:06;;;;;;;;;7.67;7.67;;;;;16.09;74.76;101005.25;5078862;27;45482;-76
2022/09/25 01:13:32;;;;;;;;;8.67;7.67;;;;;16.05;74.70;100993.28;5079185;27;45322;-76
2022/09/25 01:16:10;;;;;;;;;8.33;7.00;;;;;16.11;74.28;101000.50;5082214;27;45337;-77
2022/09/25 01:18:52;;;;;;;;;9.00;9.00;;;;;16.11;74.18;100997.00;5066264;28;45460;-76
2022/09/25 01:21:29;;;;;;;;;7.00;6.00;;;;;16.10;74.66;100992.66;5078912;27;45283;-76
2022/09/25 01:24:05;;;;;;;;;8.33;8.33;;;;;16.04;74.42;100986.25;5078824;27;45345;-77
2022/09/25 01:26:58;;;;;;;;;9.33;9.33;;;;;16.06;74.35;101002.97;5094680;27;45407;-76
2022/09/25 01:29:33;;;;;;;;;8.33;8.00;;;;;15.98;74.73;100992.47;5066869;28;45200;-76
2022/09/25 01:32:17;;;;;;;;;10.00;10.00;;;;;16.04;74.60;100996.97;5078928;27;45277;-76
2022/09/25 01:35:12;;;;;;;;;7.00;6.00;;;;;16.05;74.62;101003.16;5080746;28;45620;-77
2022/09/25 01:38:22;;;;;;;;;7.00;7.00;;;;;16.01;74.60;101005.41;5081007;28;45370;-76
2022/09/25 01:41:03;;;;;;;;;7.00;7.00;;;;;16.00;74.98;101001.94;5065007;28;45348;-76
2022/09/25 01:43:33;;;;;;;;;7.00;7.00;;;;;16.02;74.93;101007.91;5082415;27;45214;-76
2022/09/25 01:46:14;;;;;;;;;7.33;7.33;;;;;15.99;74.81;100994.09;5081949;27;45591;-76
2022/09/25 01:48:43;;;;;;;;;6.67;6.67;;;;;16.02;75.01;100991.81;5082447;27;46618;-76
2022/09/25 01:51:20;;;;;;;;;10.67;10.33;;;;;16.00;75.09;100988.53;5081033;28;45687;-76
2022/09/25 01:53:54;;;;;;;;;9.33;9.33;;;;;15.93;74.98;100984.16;5082090;28;45350;-76
2022/09/25 01:56:31;;;;;;;;;11.00;11.00;;;;;15.94;75.03;100992.00;5081830;27;46252;-76
2022/09/25 01:59:11;;;;;;;;;11.00;11.00;;;;;15.89;75.32;100981.03;5082143;27;45325;-76
2022/09/25 02:01:41;;;;;;;;;9.33;9.33;;;;;15.96;74.86;100994.47;5069159;28;45345;-76
2022/09/25 02:04:13;;;;;;;;;4.67;4.67;;;;;15.92;75.11;100982.50;5080825;28;47035;-77
2022/09/25 02:06:43;;;;;;;;;8.00;8.00;;;;;15.90;75.11;100986.19;5066700;28;48471;-77
2022/09/25 02:09:25;;;;;;;;;15.00;10.00;;;;;15.90;75.40;100988.06;5080661;28;45322;-77
2022/09/25 02:11:56;;;;;;;;;8.33;8.00;;;;;15.90;75.52;100996.91;5069175;28;45350;-76
2022/09/25 02:14:49;;;;;;;;;9.00;9.00;;;;;15.85;75.34;100987.84;5081847;27;45502;-76
2022/09/25 02:23:01;;;;;;;;;9.00;9.00;;;;;15.80;75.57;100991.13;5081708;28;45325;-78
2022/09/25 02:25:45;;;;;;;;;8.00;8.00;;;;;15.80;75.71;100990.31;5080083;28;47263;-76
2022/09/25 02:28:10;;;;;;;;;7.00;7.00;;;;;15.80;75.44;100995.69;5081688;27;46613;-77
2022/09/25 02:30:36;;;;;;;;;9.67;9.67;;;;;15.77;75.58;100996.91;5080095;27;45351;-76
2022/09/25 02:33:02;;;;;;;;;9.67;9.67;;;;;15.78;75.78;101001.25;5080522;28;45335;-77
2022/09/25 02:35:27;;;;;;;;;10.00;10.00;;;;;15.71;76.18;100995.84;5081375;27;45387;-76
2022/09/25 02:37:55;;;;;;;;;9.33;8.33;;;;;15.68;76.61;100984.75;5080051;28;48525;-76
2022/09/25 02:40:30;;;;;;;;;10.67;8.67;;;;;15.82;76.49;101004.34;5081568;27;45231;-77
2022/09/25 02:43:05;;;;;;;;;9.00;8.00;;;;;15.74;76.27;100992.78;5068647;28;45447;-76
2022/09/25 02:45:40;;;;;;;;;10.67;10.67;;;;;15.85;76.20;101001.25;5081201;28;45376;-77
2022/09/25 02:48:27;;;;;;;;;10.33;9.67;;;;;15.85;76.45;101002.09;5080094;28;47269;-76
2022/09/25 02:51:20;;;;;;;;;8.33;8.33;;;;;15.79;76.05;100994.84;5079852;28;45343;-77
2022/09/25 02:54:11;;;;;;;;;11.67;11.67;;;;;15.85;76.21;101011.97;5081341;27;45305;-77
2022/09/25 02:56:46;;;;;;;;;8.33;8.33;;;;;15.81;76.19;101003.53;5068819;28;45393;-77
2022/09/25 02:59:22;;;;;;;;;11.33;11.33;;;;;15.76;76.43;101000.63;5081029;27;45433;-76
2022/09/25 03:01:48;;;;;;;;;12.00;11.00;;;;;15.76;76.15;101001.44;5079694;28;45250;-76
2022/09/25 03:04:16;;;;;;;;;10.67;10.67;;;;;15.77;76.23;101002.25;5081212;27;45289;-77
2022/09/25 03:06:43;;;;;;;;;8.33;7.33;;;;;15.73;76.20;101001.00;5079710;28;45540;-76
2022/09/25 03:09:10;;;;;;;;;10.00;9.00;;;;;15.78;76.78;101009.28;5080668;27;45385;-77
2022/09/25 03:11:41;;;;;;;;;10.00;9.00;;;;;15.84;76.78;101029.09;5080805;27;45365;-76
2022/09/25 03:14:06;;;;;;;;;9.67;9.67;;;;;15.83;76.43;101027.44;5060126;28;45589;-77
2022/09/25 03:16:40;;;;;;;;;9.00;9.00;;;;;15.76;76.38;101022.88;5082524;27;45509;-76
2022/09/25 03:19:06;;;;;;;;;10.00;8.00;;;;;15.77;76.82;101026.38;5081144;27;46267;-77
2022/09/25 03:21:31;;;;;;;;;10.00;10.00;;;;;15.71;76.96;101021.84;5079231;28;46153;-77
2022/09/25 03:23:57;;;;;;;;;10.67;10.00;;;;;15.70;76.66;101023.69;5079402;28;45367;-77
2022/09/25 03:26:24;;;;;;;;;11.00;10.33;;;;;15.69;76.93;101032.75;5080734;27;45788;-76
2022/09/25 03:28:50;;;;;;;;;12.00;11.00;;;;;15.65;77.18;101029.66;5079379;28;47389;-78
2022/09/25 03:31:15;;;;;;;;;9.00;8.00;;;;;15.62;77.42;101022.00;5079435;28;45303;-76
2022/09/25 03:33:42;;;;;;;;;10.67;9.67;;;;;15.67;77.30;101029.44;5079250;28;45435;-77
2022/09/25 03:36:28;;;;;;;;;10.00;10.00;;;;;15.65;77.19;101031.50;5080786;27;45597;-78
2022/09/25 03:38:58;;;;;;;;;9.00;9.00;;;;;15.63;77.72;101038.91;5080142;27;45419;-76
2022/09/25 03:41:29;;;;;;;;;8.33;8.33;;;;;15.65;77.40;101042.19;5080443;27;45378;-78
2022/09/25 03:43:56;;;;;;;;;12.67;11.67;;;;;15.66;77.46;101049.25;5079152;28;45321;-77
2022/09/25 03:46:24;;;;;;;;;8.00;8.00;;;;;15.59;77.53;101037.69;5079305;28;47055;-77
2022/09/25 03:48:51;;;;;;;;;9.00;8.00;;;;;15.62;77.33;101050.63;5080318;27;45367;-77
2022/09/25 03:51:17;;;;;;;;;10.00;10.00;;;;;15.59;77.45;101054.56;5080344;27;45422;-76
2022/09/25 03:53:43;;;;;;;;;10.00;9.00;;;;;15.57;77.48;101045.91;5078982;28;45332;-76
2022/09/25 03:56:11;;;;;;;;;8.00;7.33;;;;;15.52;77.26;101038.47;5079944;27;45336;-77
2022/09/25 03:58:37;;;;;;;;;8.00;8.00;;;;;15.48;77.67;101047.09;5078722;28;48210;-76
2022/09/25 04:01:04;;;;;;;;;7.00;7.00;;;;;15.53;77.59;101050.81;5078621;28;45397;-77
2022/09/25 04:03:31;;;;;;;;;10.67;9.00;;;;;15.47;77.49;101043.59;5078966;28;45490;-77
2022/09/25 04:05:58;;;;;;;;;5.33;5.33;;;;;15.42;77.85;101035.34;5078457;28;47382;-77
2022/09/25 04:08:25;;;;;;;;;7.67;7.67;;;;;15.47;77.99;101040.09;5078804;28;47562;-77
2022/09/25 04:10:56;;;;;;;;;8.00;8.00;;;;;15.43;77.91;101036.97;5079723;28;45555;-77
2022/09/25 04:13:23;;;;;;;;;8.33;7.33;;;;;15.42;77.75;101040.69;5079999;27;45470;-77
2022/09/25 04:15:48;;;;;;;;;9.67;7.33;;;;;15.43;77.71;101031.63;5081941;27;45373;-76
2022/09/25 04:18:14;;;;;;;;;7.00;7.00;;;;;15.42;78.05;101024.63;5080874;27;45599;-76
2022/09/25 04:20:39;;;;;;;;;5.00;5.00;;;;;15.45;77.73;101036.78;5078907;28;45599;-76
2022/09/25 04:23:05;;;;;;;;;6.67;6.67;;;;;15.49;77.88;101044.22;5079945;27;45324;-76
2022/09/25 04:25:30;;;;;;;;;8.67;7.00;;;;;15.45;77.45;101042.16;5079526;27;45357;-77
2022/09/25 04:27:57;;;;;;;;;6.00;6.00;;;;;15.45;77.49;101042.97;5079999;27;45631;-76
2022/09/25 04:30:24;;;;;;;;;6.33;6.33;;;;;15.41;77.68;101041.69;5078269;28;45360;-76
2022/09/25 04:35:33;;;;;;;;;6.33;5.00;;;;;15.48;77.43;101050.59;5079531;28;45365;-76
2022/09/25 04:37:59;;;;;;;;;5.67;5.00;;;;;15.42;77.34;101029.97;5078112;28;48727;-76
2022/09/25 04:40:25;;;;;;;;;5.00;5.00;;;;;15.43;77.46;101034.31;5078069;28;45343;-77
2022/09/25 04:42:58;;;;;;;;;7.00;5.67;;;;;15.45;77.48;101040.31;5079863;28;45656;-76
2022/09/25 04:45:25;;;;;;;;;7.00;7.00;;;;;15.43;77.32;101047.69;5078039;27;46223;-76
2022/09/25 04:47:54;;;;;;;;;7.00;6.33;;;;;15.44;77.80;101054.69;5079360;27;45411;-77
2022/09/25 04:50:21;;;;;;;;;7.33;4.67;;;;;15.42;77.72;101055.94;5079445;27;45484;-76
2022/09/25 04:52:46;;;;;;;;;10.00;9.67;;;;;15.35;77.76;101056.72;5079216;28;45293;-76
2022/09/25 04:55:11;;;;;;;;;10.67;10.33;;;;;15.35;77.81;101064.75;5078024;28;45401;-76
2022/09/25 04:57:38;;;;;;;;;11.00;9.33;;;;;15.37;78.11;101061.88;5078983;27;45309;-76
2022/09/25 05:00:05;;;;;;;;;12.00;10.00;;;;;15.39;77.87;101067.88;5077957;28;45365;-76
2022/09/25 05:02:30;;;;;;;;;9.67;8.00;;;;;15.36;77.96;101061.03;5077841;28;45347;-76
2022/09/25 05:04:56;;;;;;;;;9.67;9.00;;;;;15.40;78.08;101069.53;5079290;27;45318;-76
2022/09/25 05:07:21;;;;;;;;;9.33;9.00;;;;;15.43;77.99;101070.97;5079301;27;45402;-77
2022/09/25 05:09:46;;;;;;;;;9.67;9.00;;;;;15.37;77.78;101075.25;5079738;28;45361;-76
2022/09/25 05:12:12;;;;;;;;;11.67;11.00;;;;;15.42;77.69;101082.72;5083004;27;45453;-76
2022/09/25 05:14:39;;;;;;;;;14.00;13.33;;;;;15.39;77.66;101087.44;5082915;27;45458;-76
2022/09/25 05:17:05;;;;;;;;;15.33;14.00;;;;;15.33;77.97;101082.06;5085558;27;47186;-77
2022/09/25 05:19:31;;;;;;;;;15.00;15.00;;;;;15.34;77.85;101079.19;5081405;28;45853;-77
2022/09/25 05:21:56;;;;;;;;;18.33;16.00;;;;;15.32;77.94;101081.22;5064702;28;45274;-77
2022/09/25 05:24:21;;;;;;;;;22.67;19.67;;;;;15.29;77.51;101080.78;5082820;28;45338;-77
2022/09/25 05:26:47;;;;;;;;;20.00;19.00;;;;;15.29;77.38;101084.28;5082469;27;45369;-77
2022/09/25 05:29:12;;;;;;;;;20.00;20.00;;;;;15.26;77.33;101088.19;5082589;27;45259;-77
2022/09/25 05:31:37;;;;;;;;;23.33;20.33;;;;;15.26;77.55;101085.50;5081581;28;45390;-76
2022/09/25 05:34:03;;;;;;;;;22.00;20.00;;;;;15.30;77.69;101093.16;5081059;28;45833;-76
2022/09/25 05:36:28;;;;;;;;;20.00;17.67;;;;;15.23;77.77;101091.25;5081190;28;46123;-77
2022/09/25 05:38:54;;;;;;;;;22.67;18.33;;;;;15.23;77.63;101083.22;5082449;27;45295;-76
2022/09/25 05:41:20;;;;;;;;;20.00;19.00;;;;;15.22;77.63;101091.44;5082516;28;45329;-77
2022/09/25 05:43:49;;;;;;;;;20.33;19.67;;;;;15.15;77.72;101086.06;5080854;28;46185;-76
2022/09/25 05:46:15;;;;;;;;;21.67;21.00;;;;;15.15;77.50;101086.88;5082502;27;45262;-77
2022/09/25 05:48:40;;;;;;;;;22.33;21.33;;;;;15.20;77.65;101093.53;5082319;28;45147;-76
2022/09/25 05:51:05;;;;;;;;;19.00;19.00;;;;;15.19;77.62;101092.69;5082122;28;45200;-76
2022/09/25 05:53:31;;;;;;;;;20.33;20.00;;;;;15.20;77.66;101101.56;5082302;28;45842;-76
2022/09/25 05:56:02;;;;;;;;;20.67;20.00;;;;;15.19;77.35;101103.38;5080575;28;47917;-76
2022/09/25 05:58:30;;;;;;;;;26.00;24.00;;;;;15.13;77.74;101094.31;5082177;27;45349;-76
2022/09/25 06:01:00;;;;;;;;;23.67;21.33;;;;;15.08;77.56;101091.38;5080931;28;45361;-77
2022/09/25 06:03:28;;;;;;;;;23.33;21.67;;;;;15.14;77.52;101087.06;5081894;27;45315;-77
2022/09/25 06:05:58;;;;;;;;;23.00;21.33;;;;;15.18;77.42;101095.56;5081909;28;45238;-76
2022/09/25 06:08:24;;;;;;;;;21.00;18.67;;;;;15.19;77.23;101090.00;5081900;27;45278;-76
2022/09/25 06:10:53;;;;;;;;;23.67;23.67;;;;;15.20;76.98;101099.69;5081933;27;45322;-76
2022/09/25 06:13:19;;;;;;;;;20.00;20.00;;;;;15.21;77.07;101090.66;5081607;27;45256;-76
2022/09/25 06:15:44;;;;;;;;;24.33;22.33;;;;;15.21;77.17;101108.56;5082857;27;45271;-76
2022/09/25 06:18:10;;;;;;;;;23.00;20.67;;;;;15.17;77.22;101110.78;5078503;27;45409;-76
2022/09/25 06:20:35;;;;;;;;;20.67;20.67;;;;;15.21;77.20;101112.06;5076875;27;45693;-75
2022/09/25 06:23:01;;;;;;;;;21.33;21.33;;;;;15.21;77.17;101116.59;5073167;27;45416;-76
2022/09/25 06:25:29;;;;;;;;;19.33;19.33;;;;;15.22;76.88;101119.06;5081324;27;45425;-76
2022/09/25 06:27:56;;;;;;;;;21.00;19.00;;;;;15.25;76.73;101123.19;5081618;27;45402;-76
2022/09/25 06:30:22;;;;;;;;;20.00;18.00;;;;;15.15;76.79;101118.19;5081665;28;45303;-77
2022/09/25 06:32:49;;;;;;;;;17.67;16.00;;;;;15.06;76.65;101117.53;5080244;28;46183;-76
2022/09/25 06:35:15;;;;;;;;;19.00;15.67;;;;;15.10;76.63;101123.28;5081623;27;45367;-78
2022/09/25 06:37:41;;;;;;;;;15.33;15.33;;;;;15.08;76.35;101136.88;5065657;28;45324;-79
2022/09/25 06:40:07;;;;;;;;;18.00;17.00;;;;;14.98;76.40;101123.84;5081073;28;45908;-78
2022/09/25 06:42:34;;;;;;;;;17.00;17.00;;;;;15.00;76.17;101142.38;5080190;28;47320;-77
2022/09/25 06:45:00;;;;;;;;;21.67;18.00;;;;;14.95;76.85;101139.44;5080184;28;47324;-78
2022/09/25 06:47:25;;;;;;;;;19.67;18.67;;;;;14.89;76.52;101141.06;5081356;27;45243;-76
2022/09/25 06:49:51;;;;;;;;;18.00;16.00;;;;;14.89;76.45;101149.91;5081434;27;45919;-77
2022/09/25 06:52:16;;;;;;;;;21.00;18.00;;;;;14.86;76.47;101141.44;5081303;27;45561;-78
2022/09/25 06:54:41;;;;;;;;;20.67;19.67;;;;;14.74;76.36;101135.75;5082190;27;46171;-78
2022/09/25 06:57:08;;;;;;;;;23.67;20.67;;;;;14.68;76.48;101126.66;5080860;27;45246;-78
2022/09/25 06:59:34;;;;;;;;;20.67;19.00;;;;;14.73;76.61;101145.63;5081275;28;45387;-78
2022/09/25 07:03:43;;;;;;;;;22.33;20.00;;;;;14.69;76.76;101144.34;5079594;28;45926;-80
2022/09/25 07:04:46;;;;;;;;;26.33;23.00;;;;;14.62;76.38;101143.47;5080802;27;45230;-79
2022/09/25 07:07:12;;;;;;;;;23.33;21.33;;;;;14.52;76.49;101138.44;5079497;28;45383;-78
2022/09/25 07:09:37;;;;;;;;;20.33;19.00;;;;;14.47;76.85;101128.31;5080684;27;45432;-76
2022/09/25 07:12:06;;;;;;;;;18.00;18.00;;;;;14.48;76.90;101135.31;5080887;27;45481;-79
2022/09/25 07:14:32;;;;;;;;;16.00;15.67;;;;;14.50;76.42;101148.50;5079591;28;47485;-78
2022/09/25 07:16:57;;;;;;;;;16.00;16.00;;;;;14.34;76.52;101141.53;5082344;27;45334;-77
2022/09/25 07:19:23;;;;;;;;;19.00;15.00;;;;;14.24;76.73;101131.16;5081280;27;45464;-78
2022/09/25 07:21:48;;;;;;;;;13.33;13.00;;;;;14.25;76.75;101136.31;5081329;27;45452;-77
2022/09/25 07:24:13;;;;;;;;;18.33;15.00;;;;;14.24;76.80;101137.34;5080725;27;46244;-76
2022/09/25 07:26:39;;;;;;;;;14.33;14.33;;;;;14.31;76.98;101145.41;5079139;27;49223;-79
2022/09/25 07:29:05;;;;;;;;;16.67;15.00;;;;;14.33;77.10;101146.06;5078683;27;45582;-78
2022/09/25 07:31:32;;;;;;;;;17.67;17.00;;;;;14.33;76.85;101143.38;5078181;28;46233;-76
2022/09/25 07:34:01;;;;;;;;;14.00;14.00;;;;;14.34;77.03;101153.06;5080198;27;46316;-77
2022/09/25 07:36:27;;;;;;;;;14.00;14.00;;;;;14.35;77.00;101148.53;5080873;27;45303;-77
2022/09/25 07:38:53;;;;;;;;;13.67;12.00;;;;;14.30;77.05;101154.44;5077067;28;45422;-77
2022/09/25 07:41:23;;;;;;;;;14.33;13.33;;;;;14.33;76.74;101153.25;5078301;27;45256;-79
2022/09/25 07:43:56;;;;;;;;;16.00;15.00;;;;;14.36;77.00;101152.88;5068071;27;45397;-78
2022/09/25 07:46:22;;;;;;;;;15.00;14.00;;;;;14.39;76.88;101158.69;5079333;27;45497;-78
2022/09/25 07:48:48;;;;;;;;;11.33;11.33;;;;;14.34;77.12;101150.38;5059864;28;45468;-78
2022/09/25 07:51:14;;;;;;;;;14.33;14.00;;;;;14.38;76.86;101157.03;5064750;27;45738;-76
2022/09/25 07:53:40;;;;;;;;;12.00;12.00;;;;;14.38;76.81;101161.53;5078210;27;45460;-78
2022/09/25 07:56:05;;;;;;;;;13.67;12.67;;;;;14.31;76.80;101150.75;5074578;28;46825;-78
2022/09/25 07:58:31;;;;;;;;;13.67;13.67;;;;;14.40;77.05;101154.16;5080149;27;45275;-77
2022/09/25 08:01:01;;;;;;;;;16.33;14.00;;;;;14.51;76.82;101167.03;5080583;27;45455;-76
2022/09/25 08:03:27;;;;;;;;;15.00;14.00;;;;;14.50;77.02;101161.88;5081430;27;45432;-76
2022/09/25 08:06:00;;;;;;;;;11.67;10.67;;;;;14.52;77.08;101174.03;5079470;27;45442;-76
2022/09/25 08:08:30;;;;;;;;;15.33;13.00;;;;;14.60;76.59;101173.06;5077144;28;45348;-76
2022/09/25 08:11:01;;;;;;;;;16.00;14.00;;;;;14.57;76.37;101159.25;5077973;28;46299;-76
2022/09/25 08:13:27;;;;;;;;;10.00;10.00;;;;;14.69;76.57;101176.44;5079283;27;46220;-76
2022/09/25 08:15:52;;;;;;;;;13.00;13.00;;;;;14.68;76.46;101164.09;5081648;27;45407;-76
2022/09/25 08:18:18;;;;;;;;;9.33;9.33;;;;;14.76;76.47;101158.59;5089035;27;45349;-76
2022/09/25 08:20:44;;;;;;;;;8.00;8.00;;;;;14.82;76.16;101159.75;5077173;28;46389;-76
2022/09/25 08:23:09;;;;;;;;;10.00;9.33;;;;;14.82;76.09;101149.03;5071694;27;47354;-76
2022/09/25 08:25:35;;;;;;;;;11.00;10.00;;;;;14.89;75.58;101160.63;5077697;28;45445;-77
2022/09/25 08:28:01;;;;;;;;;8.00;8.00;;;;;14.89;75.65;101155.28;5078241;28;45423;-77
2022/09/25 08:30:28;;;;;;;;;7.67;7.33;;;;;14.91;75.45;101159.59;5078218;28;45574;-76
2022/09/25 08:32:53;;;;;;;;;11.00;11.00;;;;;15.01;75.50;101168.97;5066505;28;46326;-77
2022/09/25 08:35:18;;;;;;;;;7.00;7.00;;;;;15.00;75.30;101166.47;5075482;28;45182;-80
2022/09/25 08:37:45;;;;;;;;;6.67;6.67;;;;;14.97;75.25;101161.50;5080116;28;45237;-78
2022/09/25 08:40:22;;;;;;;;;5.67;5.67;;;;;15.07;75.15;101170.03;5075915;27;45426;-78
2022/09/25 08:42:52;;;;;;;;;8.67;6.67;;;;;15.15;75.13;101169.88;5076938;28;45746;-78
2022/09/25 08:51:15;;;;;;;;;3.00;3.00;;;;;15.36;74.48;101170.03;5079467;28;45353;-78
2022/09/25 08:53:43;;;;;;;;;3.33;3.33;;;;;15.40;73.96;101164.09;5079400;28;46247;-78
2022/09/25 08:56:13;;;;;;;;;1.33;1.00;;;;;15.50;73.92;101171.75;5078160;28;45300;-79
2022/09/25 08:58:42;;;;;;;;;3.00;3.00;;;;;15.57;73.04;101168.31;5080111;27;45368;-78
2022/09/25 09:01:18;;;;;;;;;3.67;3.67;;;;;15.63;72.69;101168.31;5079960;27;45433;-78
2022/09/25 09:03:52;;;;;;;;;3.00;3.00;;;;;15.70;72.63;101163.00;5078893;27;46432;-76
2022/09/25 09:06:18;;;;;;;;;4.67;4.67;;;;;15.70;71.71;101156.81;5079449;27;45233;-78
2022/09/25 09:08:53;;;;;;;;;1.00;1.00;;;;;15.81;71.34;101156.28;5078303;28;45489;-79
2022/09/25 09:11:39;;;;;;;;;2.00;2.00;;;;;15.91;70.95;101171.97;5080062;28;46307;-80
2022/09/25 09:14:09;;;;;;;;;2.00;2.00;;;;;15.93;70.69;101161.88;5082238;28;45663;-79
2022/09/25 09:16:41;;;;;;;;;1.67;1.67;;;;;16.01;70.30;101163.59;5081781;27;45385;-81
2022/09/25 09:19:08;;;;;;;;;5.33;5.00;;;;;16.00;70.14;101156.56;5079979;28;45414;-81
2022/09/25 09:21:37;;;;;;;;;6.00;3.33;;;;;16.17;69.29;101164.25;5081212;28;45436;-80
2022/09/25 09:24:09;;;;;;;;;1.00;1.00;;;;;16.16;69.60;101155.38;5078706;27;45301;-80
2022/09/25 09:26:52;;;;;;;;;2.00;2.00;;;;;16.30;68.75;101166.16;5084938;28;46123;-78
2022/09/25 09:29:31;;;;;;;;;1.33;1.33;;;;;16.35;68.37;101167.22;5082664;27;45634;-80
2022/09/25 09:32:21;;;;;;;;;0.00;0.00;;;;;16.47;68.09;101166.63;5070498;28;45548;-82
2022/09/25 09:34:46;;;;;;;;;2.00;2.00;;;;;16.56;67.27;101173.44;5077339;28;48128;-78
2022/09/25 09:37:42;;;;;;;;;2.33;1.00;;;;;16.66;67.29;101154.25;5077597;28;45498;-79
2022/09/25 09:40:26;;;;;;;;;0.00;0.00;;;;;16.77;66.43;101164.38;5077932;28;45502;-80
2022/09/25 09:43:13;;;;;;;;;1.67;1.67;;;;;16.87;66.15;101150.56;5070345;28;45674;-84
2022/09/25 09:45:51;;;;;;;;;1.33;1.33;;;;;17.01;65.21;101153.25;5076219;28;47851;-82
2022/09/25 09:48:28;;;;;;;;;1.67;1.33;;;;;17.14;64.45;101152.44;5077384;28;45303;-83
2022/09/25 09:51:08;;;;;;;;;3.00;2.00;;;;;17.17;63.65;101149.31;5076240;27;45536;-85
2022/09/25 09:53:40;;;;;;;;;1.33;1.33;;;;;17.29;63.41;101157.56;5076720;27;46437;-80
2022/09/25 09:56:13;;;;;;;;;1.00;1.00;;;;;17.43;62.72;101166.44;5078464;28;45468;-81
2022/09/25 09:58:53;;;;;;;;;1.33;1.33;;;;;17.48;62.88;101144.31;5082460;27;45321;-81
2022/09/25 10:01:22;;;;;;;;;1.00;1.00;;;;;17.65;62.92;101155.41;5099840;27;45445;-81
2022/09/25 10:03:55;;;;;;;;;1.00;1.00;;;;;17.77;61.77;101148.38;5081964;28;45937;-80
2022/09/25 10:06:27;;;;;;;;;1.00;1.00;;;;;17.93;61.05;101140.88;5084085;27;45600;-81
2022/09/25 10:08:53;;;;;;;;;2.00;1.00;;;;;18.07;60.97;101140.81;5084442;28;45479;-81
2022/09/25 10:11:19;;;;;;;;;1.00;1.00;;;;;18.22;59.70;101141.34;5082691;28;45279;-80
2022/09/25 10:13:47;;;;;;;;;0.67;0.33;;;;;18.25;58.51;101124.78;5081753;28;46334;-79
2022/09/25 10:16:20;;;;;;;;;0.67;0.00;;;;;18.52;58.26;101148.81;5082050;27;46216;-80
2022/09/25 10:19:06;;;;;;;;;1.33;1.33;;;;;18.60;57.56;101139.66;5080978;28;45295;-82
2022/09/25 10:21:50;;;;;;;;;1.00;0.00;;;;;18.72;57.32;101138.94;5081116;27;45356;-80
2022/09/25 10:24:50;;;;;;;;;0.00;0.00;;;;;18.79;55.84;101134.31;5081959;28;47013;-82
2022/09/25 10:27:46;;;;;;;;;0.33;0.33;;;;;18.87;55.98;101127.84;5083334;28;45329;-79
2022/09/25 10:30:17;;;;;;;;;0.00;0.00;;;;;18.96;55.27;101136.47;5072724;27;45379;-79
2022/09/25 10:33:08;;;;;;;;;0.00;0.00;;;;;19.03;55.17;101132.69;5080525;28;45394;-79
2022/09/25 10:35:36;;;;;;;;;0.67;0.00;;;;;19.10;54.46;101129.13;5078116;28;45327;-78
2022/09/25 10:38:02;;;;;;;;;0.00;0.00;;;;;19.15;53.83;101123.88;5081991;28;45482;-79
2022/09/25 10:40:33;;;;;;;;;2.00;0.00;;;;;19.13;53.96;101123.31;5079339;28;45311;-79
2022/09/25 10:43:05;;;;;;;;;1.00;1.00;;;;;19.11;53.95;101109.22;5081619;27;45301;-84
2022/09/25 10:45:33;;;;;;;;;1.00;0.00;;;;;19.17;54.00;101108.34;5080139;28;45813;-80
2022/09/25 10:50:44;;;;;;;;;2.00;1.67;;;;;19.22;52.40;101127.38;5081350;28;45359;-78
2022/09/25 10:53:28;;;;;;;;;0.00;0.00;;;;;19.15;51.96;101102.34;5081198;27;45414;-80
2022/09/25 10:56:08;;;;;;;;;0.00;0.00;;;;;19.38;52.35;101115.16;5078697;28;45431;-80
2022/09/25 10:58:54;;;;;;;;;1.00;1.00;;;;;19.50;52.76;101115.22;5077839;28;48329;-81
2022/09/25 11:01:28;;;;;;;;;0.00;0.00;;;;;19.68;51.71;101121.66;5072797;27;45957;-82
2022/09/25 11:03:55;;;;;;;;;0.00;0.00;;;;;19.74;51.78;101115.38;5079992;27;45500;-84
2022/09/25 11:06:24;;;;;;;;;0.00;0.00;;;;;19.78;51.07;101121.94;5082617;28;46075;-81
2022/09/25 11:09:01;;;;;;;;;0.00;0.00;;;;;19.80;50.53;101125.25;5083291;27;45521;-82
2022/09/25 11:11:27;;;;;;;;;0.00;0.00;;;;;19.85;49.23;101118.34;5080210;28;45859;-80
2022/09/25 11:13:57;;;;;;;;;1.00;0.00;;;;;19.91;50.03;101123.63;5080093;27;45427;-80
2022/09/25 11:16:42;;;;;;;;;0.67;0.67;;;;;19.90;49.56;101126.56;5081159;27;46542;-80
2022/09/25 11:19:12;;;;;;;;;0.00;0.00;;;;;19.98;49.16;101118.16;5078994;28;47388;-80
2022/09/25 11:21:46;;;;;;;;;0.00;0.00;;;;;20.09;49.31;101127.41;5080501;27;45287;-81
2022/09/25 11:24:30;;;;;;;;;1.67;0.00;;;;;20.22;48.92;101139.03;5080486;28;45769;-81
2022/09/25 11:27:02;;;;;;;;;2.00;2.00;;;;;20.24;48.50;101129.69;5090304;27;45907;-83
2022/09/25 11:30:03;;;;;;;;;1.00;1.00;;;;;20.42;47.79;101147.66;5092336;27;47255;-80
2022/09/25 11:32:47;;;;;;;;;0.00;0.00;;;;;20.47;48.42;101133.47;5079149;27;45404;-81
2022/09/25 11:35:51;;;;;;;;;1.00;1.00;;;;;20.61;47.43;101134.09;5095520;27;45485;-80
2022/09/25 11:41:10;;;;;;;;;0.00;0.00;;;;;20.75;46.77;101140.13;5079028;27;45469;-81
2022/09/25 11:41:21;;;;;;;;;0.00;0.00;;;;;20.80;46.92;101134.00;5065081;28;45466;-81
2022/09/25 11:44:18;;;;;;;;;1.00;1.00;;;;;20.94;46.54;101126.50;5078894;28;45482;-82
2022/09/25 11:47:00;;;;;;;;;0.00;0.00;;;;;21.15;45.85;101137.78;5068010;27;45305;-82
2022/09/25 11:49:30;;;;;;;;;0.00;0.00;;;;;21.24;46.30;101128.28;5079884;27;45322;-82
2022/09/25 11:52:07;;;;;;;;;0.33;0.33;;;;;21.24;46.12;101136.38;5075777;27;45532;-84
2022/09/25 11:54:35;;;;;;;;;0.00;0.00;;;;;21.23;45.48;101133.91;5075965;28;45810;-83
2022/09/25 11:57:39;;;;;;;;;0.00;0.00;;;;;21.28;44.81;101123.22;5078904;28;45409;-79